Time;durP1;ratioP1;P1;durP2;ratioP2;P2;SDS_P1;SDS_P2;PMS_P1;PMS_P2;Temp;Humidity;BMP_temperature;BMP_pressure;BME280_temperature;BME280_humidity;BME280_pressure;Samples;Min_cycle;Max_cycle;Signal;HPM_P1;HPM_P2
2021/06/24 00:01:47;;;;;;;0.80;0.80;;;15.80;79.10;;;;;;5034759;28;20053;-76
2021/06/24 00:04:13;;;;;;;0.70;0.70;;;15.70;78.40;;;;;;5034965;28;20063;-76
2021/06/24 00:06:39;;;;;;;1.45;1.10;;;15.70;78.40;;;;;;5034555;28;20029;-76
2021/06/24 00:09:05;;;;;;;0.70;0.70;;;15.70;78.40;;;;;;5034913;28;20022;-75
2021/06/24 00:11:31;;;;;;;0.63;0.63;;;15.70;78.50;;;;;;5034787;28;20037;-76
2021/06/24 00:13:58;;;;;;;0.80;0.80;;;15.70;78.50;;;;;;5034667;28;20025;-74
2021/06/24 00:16:24;;;;;;;1.15;0.68;;;15.70;78.40;;;;;;5034843;28;20049;-77
2021/06/24 00:18:49;;;;;;;0.90;0.90;;;15.80;78.30;;;;;;5034189;28;20098;-79
2021/06/24 00:21:15;;;;;;;0.80;0.65;;;15.80;78.20;;;;;;5034314;28;20026;-76
2021/06/24 00:23:40;;;;;;;0.55;0.55;;;15.70;78.20;;;;;;5034588;28;20463;-75
2021/06/24 00:26:06;;;;;;;0.95;0.90;;;15.70;78.30;;;;;;5034450;28;20021;-75
2021/06/24 00:28:31;;;;;;;0.75;0.75;;;15.70;78.20;;;;;;5034429;28;20025;-75
2021/06/24 00:30:57;;;;;;;0.70;0.70;;;15.70;78.30;;;;;;5034437;28;20029;-74
2021/06/24 00:33:23;;;;;;;0.88;0.88;;;15.60;78.30;;;;;;5016024;28;20031;-76
2021/06/24 00:35:49;;;;;;;0.93;0.70;;;15.60;78.50;;;;;;5034240;28;20087;-75
2021/06/24 00:38:15;;;;;;;0.80;0.75;;;15.60;78.50;;;;;;5034253;28;20128;-75
2021/06/24 00:40:42;;;;;;;0.90;0.90;;;15.50;78.50;;;;;;5033831;28;20128;-75
2021/06/24 00:43:10;;;;;;;0.73;0.73;;;15.50;78.50;;;;;;5034176;28;20068;-75
2021/06/24 00:45:36;;;;;;;0.90;0.80;;;15.50;78.50;;;;;;5034061;28;20048;-75
2021/06/24 00:48:03;;;;;;;0.65;0.65;;;15.50;78.50;;;;;;5033441;28;20109;-76
2021/06/24 00:50:29;;;;;;;0.70;0.70;;;15.50;78.50;;;;;;5033893;28;20021;-75
2021/06/24 00:52:55;;;;;;;0.68;0.60;;;15.50;78.50;;;;;;5034426;28;20108;-75
2021/06/24 00:55:42;;;;;;;0.90;0.73;;;15.60;78.50;;;;;;5033794;28;20056;-76
2021/06/24 00:58:12;;;;;;;0.95;0.90;;;15.50;78.40;;;;;;5033296;28;20402;-76
2021/06/24 01:00:40;;;;;;;0.63;0.55;;;15.50;78.40;;;;;;5016119;28;20022;-75
2021/06/24 01:03:06;;;;;;;1.15;1.02;;;15.60;79.10;;;;;;5033096;28;20029;-75
2021/06/24 01:05:34;;;;;;;1.70;1.35;;;15.50;78.50;;;;;;5033833;28;20479;-77
2021/06/24 01:07:59;;;;;;;0.95;0.88;;;15.50;78.50;;;;;;5033751;28;20142;-76
2021/06/24 01:10:25;;;;;;;1.10;0.95;;;15.50;78.40;;;;;;5033580;28;20129;-75
2021/06/24 01:12:51;;;;;;;1.02;0.98;;;15.40;78.50;;;;;;5033651;28;20056;-76
2021/06/24 01:15:16;;;;;;;1.30;1.20;;;15.40;78.60;;;;;;5033578;28;20029;-76
2021/06/24 01:17:42;;;;;;;1.60;1.50;;;15.40;78.70;;;;;;5032872;28;20038;-76
2021/06/24 01:20:08;;;;;;;1.73;1.63;;;15.30;78.80;;;;;;5033460;28;20046;-75
2021/06/24 01:22:34;;;;;;;1.65;1.50;;;15.20;79.50;;;;;;5033372;28;20079;-75
2021/06/24 01:24:59;;;;;;;0.82;0.82;;;15.20;79.10;;;;;;5033371;28;20031;-75
2021/06/24 01:27:25;;;;;;;1.02;1.00;;;15.20;79.10;;;;;;5015578;28;20087;-76
2021/06/24 01:29:51;;;;;;;2.17;1.33;;;15.20;79.10;;;;;;5033388;28;20023;-75
2021/06/24 01:32:16;;;;;;;1.13;1.05;;;15.20;79.10;;;;;;5032065;28;20026;-75
2021/06/24 01:34:42;;;;;;;0.90;0.90;;;15.20;78.90;;;;;;5033392;28;20040;-77
2021/06/24 01:37:08;;;;;;;1.00;1.00;;;15.30;78.90;;;;;;5033167;28;20478;-74
2021/06/24 01:39:34;;;;;;;1.45;0.88;;;15.30;78.80;;;;;;5033009;28;20099;-75
2021/06/24 01:41:59;;;;;;;1.27;0.90;;;15.30;78.70;;;;;;5033330;28;20029;-76
2021/06/24 01:44:34;;;;;;;1.05;1.05;;;15.30;78.60;;;;;;5015523;28;20474;-75
2021/06/24 01:47:01;;;;;;;1.35;1.08;;;15.30;78.60;;;;;;5032700;28;20112;-75
2021/06/24 01:49:27;;;;;;;1.23;1.00;;;15.20;78.70;;;;;;5033139;28;20025;-76
2021/06/24 01:51:53;;;;;;;0.98;0.88;;;15.20;78.80;;;;;;5033203;28;20017;-76
2021/06/24 01:54:20;;;;;;;0.52;0.52;;;15.20;78.80;;;;;;5033058;28;20029;-76
2021/06/24 01:56:46;;;;;;;0.80;0.80;;;15.30;78.80;;;;;;5033049;28;20044;-76
2021/06/24 01:59:12;;;;;;;1.08;0.85;;;15.30;78.70;;;;;;5033127;28;20032;-76
2021/06/24 02:01:37;;;;;;;0.65;0.65;;;15.20;78.70;;;;;;5032559;28;20014;-76
2021/06/24 02:04:03;;;;;;;1.02;0.70;;;15.30;78.80;;;;;;5032957;28;20036;-76
2021/06/24 02:19:57;;;;;;;0.50;0.50;;;15.30;78.40;;;;;;5033480;28;20045;-74
2021/06/24 02:22:22;;;;;;;0.55;0.55;;;15.30;78.60;;;;;;5032768;28;20026;-76
2021/06/24 02:24:48;;;;;;;0.98;0.90;;;15.30;78.70;;;;;;5032854;28;20018;-76
2021/06/24 02:27:13;;;;;;;0.95;0.65;;;15.30;78.70;;;;;;5032763;28;20060;-76
2021/06/24 02:29:39;;;;;;;0.90;0.88;;;15.20;78.70;;;;;;5032162;28;20105;-77
2021/06/24 02:32:05;;;;;;;0.75;0.70;;;15.30;78.70;;;;;;5032761;28;20381;-75
2021/06/24 02:34:30;;;;;;;1.00;0.90;;;15.20;78.70;;;;;;5032666;28;20025;-75
2021/06/24 02:36:56;;;;;;;0.68;0.68;;;15.10;78.70;;;;;;5032500;28;20039;-75
2021/06/24 02:39:22;;;;;;;0.63;0.63;;;15.10;78.90;;;;;;5032573;28;20042;-76
2021/06/24 02:41:48;;;;;;;0.65;0.65;;;15.10;79.10;;;;;;5032778;28;20043;-75
2021/06/24 02:44:13;;;;;;;0.77;0.77;;;15.10;79.00;;;;;;5017127;28;20390;-76
2021/06/24 02:46:39;;;;;;;0.95;0.85;;;15.00;79.00;;;;;;5036352;28;20455;-75
2021/06/24 02:49:04;;;;;;;0.80;0.80;;;15.00;79.00;;;;;;5036153;28;20036;-75
2021/06/24 02:51:30;;;;;;;0.73;0.70;;;15.00;79.20;;;;;;5018426;28;20045;-74
2021/06/24 02:53:55;;;;;;;0.90;0.90;;;15.00;79.10;;;;;;5036210;28;20029;-74
2021/06/24 02:56:22;;;;;;;0.98;0.98;;;14.90;79.10;;;;;;5036243;28;20049;-75
2021/06/24 02:58:48;;;;;;;0.68;0.68;;;14.90;79.20;;;;;;5035436;28;20034;-76
2021/06/24 03:01:14;;;;;;;0.82;0.80;;;14.90;79.10;;;;;;5036117;28;20028;-76
2021/06/24 03:03:39;;;;;;;1.10;1.08;;;14.90;79.20;;;;;;5036217;28;20018;-76
2021/06/24 03:06:05;;;;;;;1.30;1.10;;;14.90;79.30;;;;;;5036055;28;20474;-76
2021/06/24 03:08:31;;;;;;;1.20;1.08;;;14.90;79.90;;;;;;5036010;28;20048;-75
2021/06/24 03:10:56;;;;;;;1.02;1.02;;;14.80;79.40;;;;;;5035920;28;20040;-75
2021/06/24 03:13:22;;;;;;;1.60;1.48;;;14.80;79.40;;;;;;5035325;28;20022;-74
2021/06/24 03:15:47;;;;;;;1.25;1.10;;;14.80;79.50;;;;;;5035863;28;20417;-75
2021/06/24 03:18:13;;;;;;;1.63;1.52;;;14.70;79.50;;;;;;5035730;28;20035;-76
2021/06/24 03:20:38;;;;;;;2.05;1.35;;;14.70;79.50;;;;;;5035741;28;20466;-75
2021/06/24 03:23:04;;;;;;;1.80;1.30;;;14.70;79.70;;;;;;5035822;28;20148;-76
2021/06/24 03:25:29;;;;;;;1.20;1.08;;;14.60;79.70;;;;;;5035567;28;20021;-75
2021/06/24 03:27:55;;;;;;;1.13;1.02;;;14.70;79.80;;;;;;5035366;28;20029;-75
2021/06/24 03:30:22;;;;;;;1.20;1.10;;;14.70;79.70;;;;;;5035461;28;20363;-75
2021/06/24 03:32:49;;;;;;;1.77;1.35;;;14.70;79.60;;;;;;5035393;28;20163;-76
2021/06/24 03:35:15;;;;;;;1.88;1.50;;;14.60;79.60;;;;;;5035390;28;20044;-75
2021/06/24 03:37:40;;;;;;;1.58;1.48;;;14.60;79.70;;;;;;5017579;28;20378;-75
2021/06/24 03:40:10;;;;;;;1.50;1.40;;;14.50;79.90;;;;;;5035269;28;20053;-75
2021/06/24 03:42:36;;;;;;;1.50;1.20;;;14.60;80.00;;;;;;5034926;28;20478;-76
2021/06/24 03:45:03;;;;;;;1.25;1.25;;;14.60;79.90;;;;;;5017461;28;20029;-75
2021/06/24 03:47:29;;;;;;;1.10;1.05;;;14.60;79.70;;;;;;5035195;28;20036;-76
2021/06/24 03:49:54;;;;;;;1.25;1.15;;;14.60;79.80;;;;;;5035173;28;20021;-75
2021/06/24 03:52:20;;;;;;;1.58;1.48;;;14.60;79.70;;;;;;5035122;28;20029;-76
2021/06/24 03:54:45;;;;;;;1.50;1.00;;;14.60;79.70;;;;;;5016686;28;20117;-76
2021/06/24 03:57:11;;;;;;;1.60;1.10;;;14.60;79.80;;;;;;5034684;28;20041;-75
2021/06/24 03:59:36;;;;;;;1.42;1.00;;;14.70;79.80;;;;;;5035089;28;20013;-74
2021/06/24 04:02:03;;;;;;;0.85;0.80;;;14.70;79.60;;;;;;5017225;28;20017;-76
2021/06/24 04:04:29;;;;;;;1.23;1.00;;;14.70;79.60;;;;;;5017130;28;20017;-75
2021/06/24 04:06:55;;;;;;;1.83;0.93;;;14.70;79.60;;;;;;5035008;28;20029;-76
2021/06/24 04:09:20;;;;;;;0.57;0.57;;;14.70;79.60;;;;;;5034795;28;20025;-76
2021/06/24 04:11:46;;;;;;;0.80;0.80;;;14.70;79.50;;;;;;5034311;28;20053;-75
2021/06/24 04:14:12;;;;;;;0.80;0.80;;;14.80;79.60;;;;;;5034676;28;20021;-77
2021/06/24 04:16:37;;;;;;;1.10;1.00;;;14.80;79.50;;;;;;5034670;28;20026;-76
2021/06/24 04:19:03;;;;;;;0.88;0.85;;;14.80;79.40;;;;;;5034687;28;20439;-76
2021/06/24 04:21:29;;;;;;;1.42;1.30;;;14.90;79.40;;;;;;5034621;28;20025;-75
2021/06/24 04:23:55;;;;;;;0.85;0.85;;;14.90;79.30;;;;;;5034518;28;20104;-76
2021/06/24 04:26:22;;;;;;;0.95;0.95;;;14.90;79.30;;;;;;5033858;28;20375;-76
2021/06/24 04:28:48;;;;;;;1.10;0.80;;;14.90;79.30;;;;;;5034528;28;20037;-75
2021/06/24 04:31:13;;;;;;;1.00;1.00;;;14.90;79.50;;;;;;5034543;28;20379;-76
2021/06/24 04:33:39;;;;;;;0.73;0.70;;;14.90;79.50;;;;;;5034406;28;20026;-74
2021/06/24 04:36:05;;;;;;;0.80;0.80;;;14.90;79.40;;;;;;5034465;28;20028;-75
2021/06/24 04:38:31;;;;;;;1.27;1.05;;;14.90;79.50;;;;;;5033933;28;20025;-75
2021/06/24 04:40:56;;;;;;;0.80;0.80;;;14.90;79.50;;;;;;5033691;28;20028;-76
2021/06/24 04:43:22;;;;;;;0.80;0.80;;;14.90;79.50;;;;;;5034105;28;20083;-75
2021/06/24 04:45:47;;;;;;;0.73;0.70;;;15.00;79.50;;;;;;5034081;28;20024;-75
2021/06/24 04:48:13;;;;;;;1.48;0.98;;;15.00;79.40;;;;;;5033986;28;20033;-76
2021/06/24 04:50:38;;;;;;;0.98;0.85;;;15.00;79.40;;;;;;5034056;28;20132;-75
2021/06/24 04:53:04;;;;;;;0.57;0.57;;;15.00;79.40;;;;;;5033873;28;20120;-75
2021/06/24 04:55:38;;;;;;;0.70;0.70;;;15.00;79.50;;;;;;5033565;28;20468;-75
2021/06/24 04:58:08;;;;;;;0.80;0.80;;;15.00;79.40;;;;;;5033823;28;20029;-76
2021/06/24 05:00:35;;;;;;;1.75;1.50;;;15.10;79.30;;;;;;5033725;28;20029;-74
2021/06/24 05:03:02;;;;;;;1.63;1.33;;;15.10;79.30;;;;;;5033763;28;20548;-75
2021/06/24 05:05:28;;;;;;;1.15;1.02;;;15.00;79.40;;;;;;5033772;28;20013;-75
2021/06/24 05:07:53;;;;;;;1.38;1.05;;;15.00;79.60;;;;;;5033841;28;20078;-76
2021/06/24 05:10:21;;;;;;;1.30;1.20;;;14.90;79.70;;;;;;5033494;28;20033;-75
2021/06/24 05:12:48;;;;;;;1.85;1.20;;;14.90;79.70;;;;;;5033653;28;20021;-76
2021/06/24 05:15:14;;;;;;;1.52;1.20;;;15.00;79.70;;;;;;5015727;28;20497;-76
2021/06/24 05:17:40;;;;;;;1.40;1.30;;;15.00;79.60;;;;;;5033545;28;20034;-76
2021/06/24 05:20:10;;;;;;;1.40;1.30;;;15.00;79.70;;;;;;5033512;28;20108;-75
2021/06/24 05:22:36;;;;;;;1.50;1.40;;;14.90;79.70;;;;;;5033666;28;20018;-75
2021/06/24 05:25:04;;;;;;;1.33;1.23;;;14.90;79.80;;;;;;5033058;28;20025;-75
2021/06/24 05:27:29;;;;;;;1.45;1.35;;;15.00;79.90;;;;;;5033352;28;20540;-75
2021/06/24 05:29:55;;;;;;;1.33;1.15;;;15.10;79.70;;;;;;5033346;28;20026;-76
2021/06/24 05:32:20;;;;;;;0.80;0.80;;;15.10;79.50;;;;;;5033295;28;20026;-76
2021/06/24 05:34:46;;;;;;;1.30;1.20;;;15.20;79.50;;;;;;5033374;28;20033;-75
2021/06/24 05:37:11;;;;;;;0.65;0.60;;;15.30;79.30;;;;;;5033264;28;20029;-74
2021/06/24 05:39:37;;;;;;;1.55;1.17;;;15.40;79.10;;;;;;5032671;28;20041;-76
2021/06/24 05:42:03;;;;;;;1.67;1.10;;;15.40;79.00;;;;;;5033254;28;20074;-74
2021/06/24 05:44:28;;;;;;;1.27;1.17;;;15.50;79.20;;;;;;5033163;28;20100;-75
2021/06/24 05:46:54;;;;;;;1.40;1.20;;;15.50;79.10;;;;;;5033084;28;20092;-76
2021/06/24 05:49:20;;;;;;;1.13;1.02;;;15.50;79.10;;;;;;5033182;28;20021;-75
2021/06/24 05:51:46;;;;;;;0.98;0.95;;;15.60;79.10;;;;;;5033226;28;20032;-74
2021/06/24 05:54:14;;;;;;;1.98;1.48;;;15.50;79.00;;;;;;5032605;28;20151;-75
2021/06/24 05:56:43;;;;;;;1.20;1.10;;;15.50;79.20;;;;;;5033046;28;20028;-75
2021/06/24 05:59:09;;;;;;;1.48;1.38;;;15.60;79.30;;;;;;5032971;28;20087;-74
2021/06/24 06:01:37;;;;;;;1.10;0.95;;;15.60;79.20;;;;;;5032998;28;20450;-74
2021/06/24 06:04:03;;;;;;;1.50;1.00;;;15.70;79.10;;;;;;5033014;28;20040;-75
2021/06/24 06:06:28;;;;;;;0.63;0.63;;;15.80;78.90;;;;;;5032883;28;20025;-72
2021/06/24 06:08:54;;;;;;;0.73;0.73;;;16.00;78.70;;;;;;5032502;28;20053;-72
2021/06/24 06:11:19;;;;;;;0.70;0.70;;;16.00;78.70;;;;;;5032870;28;20031;-72
2021/06/24 06:13:45;;;;;;;0.90;0.90;;;16.00;78.60;;;;;;5032827;28;20386;-72
2021/06/24 06:16:10;;;;;;;0.98;0.88;;;16.10;78.60;;;;;;5032967;28;20028;-72
2021/06/24 06:18:36;;;;;;;0.90;0.88;;;16.20;78.60;;;;;;5034561;28;20041;-73
2021/06/24 06:21:02;;;;;;;1.42;1.30;;;16.20;78.50;;;;;;5036791;28;20021;-72
2021/06/24 06:23:28;;;;;;;0.93;0.90;;;16.20;78.40;;;;;;5036103;28;20474;-72
2021/06/24 06:25:54;;;;;;;0.95;0.88;;;16.20;78.40;;;;;;5036700;28;20017;-72
2021/06/24 06:28:22;;;;;;;0.50;0.50;;;16.30;78.50;;;;;;5036721;28;20053;-73
2021/06/24 06:30:50;;;;;;;1.00;0.90;;;16.40;78.30;;;;;;5018809;28;20425;-74
2021/06/24 06:33:17;;;;;;;0.98;0.98;;;16.60;78.20;;;;;;5036608;28;20029;-74
2021/06/24 06:35:42;;;;;;;0.63;0.63;;;16.60;77.90;;;;;;5036399;28;20013;-73
2021/06/24 06:38:08;;;;;;;0.65;0.65;;;16.70;78.00;;;;;;5035937;28;20037;-74
2021/06/24 06:40:33;;;;;;;0.73;0.73;;;16.80;77.90;;;;;;5036261;28;20041;-74
2021/06/24 06:43:00;;;;;;;1.67;0.90;;;16.90;77.80;;;;;;5036280;28;20029;-74
2021/06/24 06:45:27;;;;;;;1.15;1.00;;;16.90;77.70;;;;;;5036447;28;20104;-72
2021/06/24 06:47:54;;;;;;;0.73;0.73;;;17.00;77.60;;;;;;5036354;28;20028;-74
2021/06/24 06:50:20;;;;;;;1.02;0.90;;;17.10;77.50;;;;;;5035659;28;20493;-76
2021/06/24 06:52:46;;;;;;;0.70;0.70;;;17.10;77.40;;;;;;5036208;28;20175;-75
2021/06/24 06:55:14;;;;;;;0.70;0.70;;;17.10;77.50;;;;;;5036134;28;20468;-74
2021/06/24 06:57:40;;;;;;;0.70;0.70;;;17.10;77.50;;;;;;5035885;28;20037;-74
2021/06/24 07:00:08;;;;;;;0.70;0.70;;;17.30;77.60;;;;;;5036041;28;20040;-74
2021/06/24 07:02:34;;;;;;;0.68;0.68;;;17.40;77.30;;;;;;5035986;28;20033;-75
2021/06/24 07:05:00;;;;;;;0.60;0.60;;;17.40;77.20;;;;;;5035578;28;20018;-75
2021/06/24 07:07:26;;;;;;;0.73;0.73;;;17.50;77.20;;;;;;5035999;28;20087;-75
2021/06/24 07:09:53;;;;;;;1.77;1.00;;;17.70;77.00;;;;;;5035775;28;20105;-75
2021/06/24 07:12:18;;;;;;;1.38;0.90;;;17.70;76.60;;;;;;5035893;28;20061;-75
2021/06/24 07:14:44;;;;;;;1.08;0.98;;;17.70;76.90;;;;;;5035908;28;20426;-74
2021/06/24 07:17:09;;;;;;;1.20;1.13;;;17.60;77.00;;;;;;5035665;28;20029;-74
2021/06/24 07:19:35;;;;;;;0.90;0.90;;;17.60;77.00;;;;;;5035302;28;20391;-73
2021/06/24 07:22:00;;;;;;;1.10;1.00;;;17.50;77.30;;;;;;5035787;28;20031;-73
2021/06/24 07:24:26;;;;;;;0.90;0.90;;;17.60;77.30;;;;;;5035648;28;20030;-73
2021/06/24 07:26:51;;;;;;;1.23;1.13;;;17.60;77.00;;;;;;5035447;28;20037;-74
2021/06/24 07:29:19;;;;;;;1.00;1.00;;;17.60;77.00;;;;;;5034491;28;20025;-74
2021/06/24 07:31:44;;;;;;;1.40;1.17;;;17.70;77.00;;;;;;5035513;28;20025;-74
2021/06/24 07:34:10;;;;;;;0.93;0.85;;;17.70;76.80;;;;;;5017221;28;20025;-73
2021/06/24 07:36:37;;;;;;;0.65;0.60;;;17.80;76.90;;;;;;5035591;28;20508;-73
2021/06/24 07:39:03;;;;;;;0.85;0.85;;;18.00;76.60;;;;;;5034927;28;20049;-72
2021/06/24 07:41:28;;;;;;;0.50;0.50;;;18.10;76.40;;;;;;5035223;28;20087;-72
2021/06/24 07:43:54;;;;;;;0.70;0.70;;;18.10;76.30;;;;;;5035241;28;20030;-72
2021/06/24 07:46:20;;;;;;;0.77;0.77;;;18.20;76.10;;;;;;5035163;28;20018;-72
2021/06/24 07:48:48;;;;;;;0.65;0.65;;;18.20;76.10;;;;;;5034812;28;20026;-73
2021/06/24 07:51:14;;;;;;;0.52;0.50;;;18.30;76.20;;;;;;5035231;28;20470;-73
2021/06/24 07:53:42;;;;;;;0.70;0.63;;;18.40;75.90;;;;;;5034949;28;20029;-73
2021/06/24 07:56:09;;;;;;;0.93;0.83;;;18.60;75.70;;;;;;5035010;28;20022;-72
2021/06/24 07:58:35;;;;;;;1.10;1.00;;;18.60;75.50;;;;;;5034916;28;20076;-73
2021/06/24 08:01:01;;;;;;;1.30;1.20;;;18.60;75.70;;;;;;5034996;28;20049;-73
2021/06/24 08:03:27;;;;;;;0.85;0.85;;;18.50;75.60;;;;;;5034419;28;20029;-72
2021/06/24 08:05:52;;;;;;;0.98;0.88;;;18.50;76.00;;;;;;5034860;28;20026;-73
2021/06/24 08:08:18;;;;;;;1.20;1.10;;;18.50;75.90;;;;;;5035228;28;20076;-73
2021/06/24 08:10:43;;;;;;;0.80;0.80;;;18.50;75.80;;;;;;5034829;28;20348;-73
2021/06/24 08:13:09;;;;;;;0.80;0.80;;;18.50;75.70;;;;;;5034728;28;20157;-72
2021/06/24 08:15:34;;;;;;;0.73;0.73;;;18.50;75.70;;;;;;5034656;28;20029;-72
2021/06/24 08:18:00;;;;;;;0.80;0.80;;;18.50;75.80;;;;;;5033958;28;20037;-72
2021/06/24 08:20:25;;;;;;;1.17;0.98;;;18.50;75.90;;;;;;5034656;28;20103;-73
2021/06/24 08:22:53;;;;;;;1.17;1.08;;;18.50;75.80;;;;;;5016842;28;20467;-73
2021/06/24 08:25:18;;;;;;;0.95;0.95;;;18.50;75.60;;;;;;5034483;28;20018;-74
2021/06/24 08:27:44;;;;;;;1.00;1.00;;;18.30;75.80;;;;;;5034584;28;20040;-72
2021/06/24 08:30:10;;;;;;;1.42;1.33;;;18.20;75.90;;;;;;5034331;28;20017;-73
2021/06/24 08:32:37;;;;;;;2.40;1.50;;;18.10;76.20;;;;;;5033878;28;20403;-73
2021/06/24 08:35:05;;;;;;;1.60;1.50;;;18.10;76.10;;;;;;5034284;28;20383;-72
2021/06/24 08:37:30;;;;;;;1.13;1.02;;;18.10;76.10;;;;;;5034063;28;20034;-72
2021/06/24 08:39:56;;;;;;;0.80;0.77;;;18.10;76.00;;;;;;5033995;28;20567;-73
2021/06/24 08:42:22;;;;;;;1.05;1.05;;;18.30;75.80;;;;;;5033994;28;20029;-73
2021/06/24 08:44:47;;;;;;;0.80;0.80;;;18.40;75.60;;;;;;5034144;28;20028;-73
2021/06/24 08:47:14;;;;;;;0.93;0.93;;;18.50;75.40;;;;;;5033525;28;20018;-72
2021/06/24 08:49:40;;;;;;;1.00;1.00;;;18.50;75.10;;;;;;5034072;28;20021;-72
2021/06/24 08:52:08;;;;;;;1.35;1.10;;;18.50;75.00;;;;;;5016304;28;20028;-73
2021/06/24 08:54:33;;;;;;;1.38;1.00;;;18.40;75.10;;;;;;5033985;28;20036;-72
2021/06/24 08:56:59;;;;;;;1.52;1.10;;;18.40;75.40;;;;;;5033849;28;20025;-72
2021/06/24 08:59:24;;;;;;;0.57;0.57;;;18.40;75.40;;;;;;5033917;28;20021;-74
2021/06/24 09:01:53;;;;;;;1.23;1.13;;;18.40;75.30;;;;;;5033624;28;20029;-75
2021/06/24 09:04:21;;;;;;;1.30;1.17;;;18.40;75.20;;;;;;5033820;28;20025;-74
2021/06/24 09:06:48;;;;;;;1.33;1.23;;;18.30;75.30;;;;;;5033769;28;20113;-74
2021/06/24 09:09:27;;;;;;;1.02;0.95;;;18.10;75.70;;;;;;5033883;28;20106;-76
2021/06/24 09:12:08;;;;;;;1.17;1.08;;;18.00;75.90;;;;;;5033789;28;20029;-75
2021/06/24 09:14:55;;;;;;;1.02;0.93;;;18.10;75.80;;;;;;5033565;28;20030;-75
2021/06/24 09:17:39;;;;;;;0.90;0.90;;;18.20;75.60;;;;;;5033096;28;20026;-73
2021/06/24 09:20:26;;;;;;;1.02;1.02;;;18.20;75.30;;;;;;5033460;28;20021;-75
2021/06/24 09:23:15;;;;;;;0.60;0.60;;;18.30;75.20;;;;;;5033308;28;20033;-76
2021/06/24 09:25:43;;;;;;;0.90;0.90;;;18.30;75.10;;;;;;5015765;28;20120;-76
2021/06/24 09:28:10;;;;;;;0.90;0.90;;;18.20;75.20;;;;;;5033361;28;20505;-75
2021/06/24 09:30:38;;;;;;;0.77;0.77;;;18.10;75.50;;;;;;5032897;28;20030;-75
2021/06/24 09:33:13;;;;;;;0.95;0.80;;;18.00;75.50;;;;;;5033547;28;20100;-76
2021/06/24 09:35:40;;;;;;;1.77;1.67;;;18.00;75.50;;;;;;5033234;28;20437;-74
2021/06/24 09:38:11;;;;;;;1.02;0.93;;;18.00;75.40;;;;;;5033235;28;20360;-75
2021/06/24 09:40:49;;;;;;;2.05;1.17;;;17.90;75.50;;;;;;5033019;28;20057;-75
2021/06/24 09:43:27;;;;;;;1.13;1.02;;;17.90;75.60;;;;;;5033387;28;20053;-76
2021/06/24 09:46:07;;;;;;;1.00;1.00;;;17.80;75.60;;;;;;5032738;28;20111;-75
2021/06/24 09:48:39;;;;;;;0.93;0.93;;;17.80;75.60;;;;;;5033091;28;20021;-74
2021/06/24 09:51:15;;;;;;;1.98;1.17;;;17.80;75.60;;;;;;5033180;28;20057;-75
2021/06/24 09:53:57;;;;;;;0.80;0.80;;;17.90;75.50;;;;;;5032576;28;20045;-74
2021/06/24 09:56:39;;;;;;;1.08;0.98;;;17.90;75.50;;;;;;5032883;28;20079;-74
2021/06/24 09:59:07;;;;;;;0.70;0.70;;;17.90;75.40;;;;;;5032604;28;20029;-74
2021/06/24 10:01:35;;;;;;;0.98;0.90;;;17.80;75.40;;;;;;5033087;28;20021;-76
2021/06/24 10:04:04;;;;;;;0.73;0.73;;;17.90;75.50;;;;;;5032819;28;20028;-75
2021/06/24 10:06:30;;;;;;;1.10;1.00;;;17.90;75.40;;;;;;5033005;28;20375;-74
2021/06/24 10:08:56;;;;;;;1.10;1.00;;;18.00;75.30;;;;;;5015190;28;20017;-74
2021/06/24 10:11:23;;;;;;;0.80;0.70;;;18.00;75.10;;;;;;5032915;28;20021;-73
2021/06/24 10:13:50;;;;;;;1.23;0.90;;;18.10;75.00;;;;;;5014487;28;20363;-76
2021/06/24 10:16:17;;;;;;;0.52;0.52;;;18.10;75.00;;;;;;5015194;28;20025;-75
2021/06/24 10:18:46;;;;;;;0.85;0.75;;;18.20;74.90;;;;;;5032942;28;20090;-75
2021/06/24 10:21:14;;;;;;;1.00;0.90;;;18.40;74.80;;;;;;5032947;28;20018;-73
2021/06/24 10:23:50;;;;;;;0.70;0.70;;;18.50;74.60;;;;;;5032771;28;20018;-75
2021/06/24 10:26:16;;;;;;;0.90;0.90;;;18.60;74.40;;;;;;5032997;28;20018;-75
2021/06/24 10:28:41;;;;;;;1.15;1.05;;;18.60;74.40;;;;;;5032259;28;20034;-75
2021/06/24 10:31:07;;;;;;;0.90;0.90;;;18.50;74.50;;;;;;5032779;28;20174;-74
2021/06/24 10:33:56;;;;;;;1.02;0.93;;;18.60;74.40;;;;;;5032617;28;20026;-74
2021/06/24 10:36:21;;;;;;;1.20;1.10;;;18.70;74.40;;;;;;5032642;28;20111;-73
2021/06/24 10:38:51;;;;;;;1.33;1.13;;;18.80;74.30;;;;;;5032333;28;20100;-70
2021/06/24 10:41:17;;;;;;;1.00;1.00;;;18.90;74.10;;;;;;5032656;28;20021;-71
2021/06/24 10:43:45;;;;;;;0.80;0.80;;;18.90;74.00;;;;;;5032204;28;20495;-70
2021/06/24 10:46:12;;;;;;;0.95;0.93;;;19.00;74.00;;;;;;5014867;28;20474;-70
2021/06/24 10:48:38;;;;;;;1.25;1.02;;;19.00;74.00;;;;;;5032454;28;20032;-69
2021/06/24 10:51:07;;;;;;;1.05;0.90;;;19.10;74.00;;;;;;5032684;28;20018;-70
2021/06/24 10:53:32;;;;;;;1.25;1.15;;;19.00;74.00;;;;;;5032595;28;20036;-70
2021/06/24 10:55:58;;;;;;;1.48;1.13;;;18.90;74.10;;;;;;5032512;28;20017;-70
2021/06/24 10:58:28;;;;;;;1.35;1.23;;;18.90;74.40;;;;;;5031948;28;20113;-70
2021/06/24 11:00:59;;;;;;;0.73;0.73;;;18.80;74.50;;;;;;5032644;28;20018;-72
2021/06/24 11:03:31;;;;;;;0.90;0.90;;;18.90;74.50;;;;;;5032440;28;20018;-72
2021/06/24 11:06:17;;;;;;;1.15;1.05;;;19.00;74.30;;;;;;5036081;28;20132;-72
2021/06/24 11:08:44;;;;;;;1.27;0.93;;;19.10;74.10;;;;;;5035939;28;20025;-72
2021/06/24 11:11:17;;;;;;;1.10;1.00;;;19.10;74.00;;;;;;5035849;28;20021;-70
2021/06/24 11:13:48;;;;;;;0.75;0.75;;;19.20;74.00;;;;;;5035498;28;20033;-72
2021/06/24 11:16:17;;;;;;;1.40;0.90;;;19.20;73.90;;;;;;5035857;28;20351;-71
2021/06/24 11:18:53;;;;;;;1.00;0.93;;;19.30;73.90;;;;;;5035586;28;20025;-72
2021/06/24 11:21:30;;;;;;;1.10;0.95;;;19.30;73.80;;;;;;5035661;28;20046;-71
2021/06/24 11:24:01;;;;;;;1.02;0.98;;;19.40;73.80;;;;;;5035774;28;20025;-71
2021/06/24 11:26:27;;;;;;;1.13;1.02;;;19.40;73.80;;;;;;5035165;28;20343;-71
2021/06/24 11:32:07;;;;;;;0.90;0.90;;;19.50;73.70;;;;;;5035704;28;20406;-71
2021/06/24 11:37:16;;;;;;;1.40;1.27;;;19.40;74.00;;;;;;5035430;28;20033;-72
2021/06/24 11:39:54;;;;;;;0.98;0.98;;;19.40;73.80;;;;;;5035128;28;20104;-71
2021/06/24 11:42:25;;;;;;;1.10;1.00;;;19.40;73.90;;;;;;5034918;28;20018;-71
2021/06/24 11:44:52;;;;;;;1.35;1.13;;;19.40;74.00;;;;;;5035320;28;20105;-71
2021/06/24 11:47:20;;;;;;;0.77;0.77;;;19.40;73.90;;;;;;5017240;28;20025;-71
2021/06/24 12:01:46;;;;;;;1.63;1.52;;;19.30;74.10;;;;;;4955019;29;20100;-72
2021/06/24 12:04:19;;;;;;;1.30;1.20;;;19.20;74.20;;;;;;4954612;29;20078;-71
2021/06/24 12:06:57;;;;;;;2.00;1.25;;;19.10;74.20;;;;;;4954764;29;20100;-71
2021/06/24 12:09:25;;;;;;;1.38;1.27;;;19.20;74.10;;;;;;4954243;29;20050;-70
2021/06/24 12:11:59;;;;;;;1.38;1.13;;;19.20;74.40;;;;;;4954529;29;20035;-71
2021/06/24 12:14:27;;;;;;;1.20;1.10;;;19.20;74.10;;;;;;4954583;29;20055;-71
2021/06/24 12:17:13;;;;;;;1.13;0.90;;;19.30;73.80;;;;;;4953809;28;20067;-72
2021/06/24 12:19:48;;;;;;;1.70;0.93;;;19.40;73.60;;;;;;4954594;29;20086;-71
2021/06/24 12:22:15;;;;;;;1.30;1.20;;;19.40;73.80;;;;;;4954414;29;20078;-72
2021/06/24 12:24:44;;;;;;;1.25;1.25;;;19.30;73.80;;;;;;4953832;29;20027;-70
2021/06/24 12:27:18;;;;;;;1.45;1.35;;;19.20;74.10;;;;;;4954325;29;20024;-72
2021/06/24 12:29:44;;;;;;;2.20;1.55;;;19.10;74.10;;;;;;4999575;28;20037;-71
2021/06/24 12:32:11;;;;;;;1.40;1.27;;;19.20;74.30;;;;;;5034279;28;20422;-70
2021/06/24 12:34:36;;;;;;;1.20;1.10;;;19.20;74.20;;;;;;5034150;28;20026;-71
2021/06/24 12:37:02;;;;;;;1.05;0.98;;;19.30;74.20;;;;;;5034054;28;20437;-72
2021/06/24 12:39:27;;;;;;;0.93;0.93;;;19.30;74.10;;;;;;5033600;28;20045;-72
2021/06/24 12:41:55;;;;;;;0.80;0.80;;;19.30;74.00;;;;;;5034063;28;20033;-71
2021/06/24 12:44:20;;;;;;;1.25;1.15;;;19.50;73.70;;;;;;5033889;28;20022;-72
2021/06/24 12:46:46;;;;;;;1.40;1.30;;;19.70;73.50;;;;;;5016382;28;20091;-70
2021/06/24 12:49:16;;;;;;;1.17;1.08;;;19.90;73.10;;;;;;5033996;28;20376;-71
2021/06/24 12:51:45;;;;;;;1.48;1.35;;;20.10;72.80;;;;;;5033798;28;20470;-71
2021/06/24 12:54:16;;;;;;;1.25;1.15;;;20.30;72.40;;;;;;5015775;28;20044;-71
2021/06/24 12:56:47;;;;;;;1.50;1.38;;;20.50;72.20;;;;;;5016059;28;20132;-72
2021/06/24 12:59:20;;;;;;;1.08;0.93;;;20.70;72.20;;;;;;5033717;28;20170;-72
2021/06/24 13:01:47;;;;;;;1.25;1.00;;;20.80;71.90;;;;;;5033774;28;20083;-71
2021/06/24 13:04:20;;;;;;;1.38;1.27;;;21.00;71.80;;;;;;5033679;28;20028;-70
2021/06/24 13:06:51;;;;;;;1.25;1.15;;;21.10;71.70;;;;;;5033685;28;20029;-71
2021/06/24 13:09:41;;;;;;;2.17;1.38;;;21.10;71.90;;;;;;5033032;28;20022;-72
2021/06/24 13:12:08;;;;;;;1.45;1.00;;;21.00;72.10;;;;;;5033562;28;20100;-72
2021/06/24 13:14:39;;;;;;;1.20;1.10;;;20.90;72.30;;;;;;5033538;28;20025;-71
2021/06/24 13:17:12;;;;;;;1.35;1.25;;;20.90;72.40;;;;;;5033333;28;20068;-72
2021/06/24 13:19:40;;;;;;;1.40;1.30;;;20.90;72.50;;;;;;5033724;28;20053;-70
2021/06/24 13:22:09;;;;;;;1.33;1.07;;;20.80;72.50;;;;;;5032885;28;20475;-71